createdAt,value
2023-01-31T00:02:25.555Z,92.95
2023-01-31T00:04:53.398Z,93.31
2023-01-31T00:07:21.249Z,93.51
2023-01-31T00:09:49.113Z,93.78
2023-01-31T00:12:17.068Z,93.75
2023-01-31T00:14:44.887Z,93.64
2023-01-31T00:17:12.709Z,93.20
2023-01-31T00:19:40.673Z,93.21
2023-01-31T00:22:08.490Z,93.45
2023-01-31T00:24:36.303Z,93.61
2023-01-31T00:27:04.372Z,93.68
2023-01-31T00:29:32.386Z,93.77
2023-01-31T00:32:01.289Z,93.73
2023-01-31T00:34:29.205Z,93.56
2023-01-31T00:36:57.280Z,93.75
2023-01-31T00:39:25.107Z,93.68
2023-01-31T00:41:52.904Z,93.80
2023-01-31T00:44:20.735Z,93.76
2023-01-31T00:46:48.580Z,93.95
2023-01-31T00:49:16.575Z,94.33
2023-01-31T00:51:44.783Z,94.41
2023-01-31T00:54:13.392Z,94.58
2023-01-31T00:56:41.334Z,94.60
2023-01-31T00:59:09.280Z,94.72
2023-01-31T01:01:38.354Z,94.74
2023-01-31T01:04:07.125Z,94.93
2023-01-31T01:06:38.402Z,94.99
2023-01-31T01:09:06.270Z,95.20
2023-01-31T01:11:35.711Z,95.28
2023-01-31T01:14:04.292Z,95.34
2023-01-31T01:16:36.835Z,95.50
2023-01-31T01:19:13.532Z,95.67
2023-01-31T01:21:41.490Z,95.65
2023-01-31T01:24:14.033Z,95.69
2023-01-31T01:26:42.451Z,95.83
2023-01-31T01:29:10.667Z,95.80
2023-01-31T01:31:39.852Z,95.95
2023-01-31T01:34:13.553Z,95.90
2023-01-31T01:36:42.139Z,95.83
2023-01-31T01:39:11.970Z,95.89
2023-01-31T01:41:40.960Z,95.91
2023-01-31T01:44:43.160Z,95.92
2023-01-31T01:47:21.955Z,95.76
2023-01-31T01:50:01.891Z,95.76
2023-01-31T01:52:33.192Z,95.42
2023-01-31T01:55:54.000Z,95.34
2023-01-31T01:58:21.778Z,95.36
2023-01-31T02:00:51.186Z,95.33
2023-01-31T02:03:19.502Z,95.25
2023-01-31T02:05:54.552Z,95.22
2023-01-31T02:08:25.632Z,95.35
2023-01-31T02:11:14.323Z,95.46
2023-01-31T02:13:43.128Z,95.53
2023-01-31T02:16:15.589Z,95.42
2023-01-31T02:18:45.836Z,95.53
2023-01-31T02:21:51.317Z,95.48
2023-01-31T02:24:50.243Z,95.47
2023-01-31T02:27:29.978Z,95.26
2023-01-31T02:30:07.251Z,95.30
2023-01-31T02:32:45.250Z,95.12
2023-01-31T02:35:37.818Z,95.02
2023-01-31T02:38:24.225Z,94.73
2023-01-31T02:41:14.765Z,94.63
2023-01-31T02:44:10.706Z,94.57
2023-01-31T02:46:53.325Z,94.32
2023-01-31T02:49:42.456Z,94.19
2023-01-31T02:52:37.429Z,94.10
2023-01-31T02:55:33.794Z,94.14
2023-01-31T02:58:05.533Z,94.12
2023-01-31T03:00:37.112Z,94.11
2023-01-31T03:03:17.989Z,94.35
2023-01-31T03:05:56.917Z,94.44
2023-01-31T03:08:24.940Z,94.35
2023-01-31T03:11:04.027Z,94.43
2023-01-31T03:13:51.496Z,94.57
2023-01-31T03:16:41.193Z,94.81
2023-01-31T03:19:21.234Z,94.99
2023-01-31T03:21:55.431Z,95.12
2023-01-31T03:24:27.188Z,95.16
2023-01-31T03:26:57.928Z,95.20
2023-01-31T03:29:28.240Z,95.50
2023-01-31T03:32:03.371Z,95.62
2023-01-31T03:34:32.585Z,95.48
2023-01-31T03:37:23.675Z,95.63
2023-01-31T03:40:06.013Z,95.75
2023-01-31T03:42:44.401Z,95.99
2023-01-31T03:45:33.207Z,95.97
2023-01-31T03:48:03.684Z,95.93
2023-01-31T03:50:41.788Z,96.20
2023-01-31T03:53:24.972Z,96.08
2023-01-31T03:56:04.743Z,96.19
2023-01-31T03:58:39.475Z,96.01
2023-01-31T04:01:09.653Z,96.08
2023-01-31T04:03:45.794Z,95.90
2023-01-31T04:06:14.593Z,95.79
2023-01-31T04:08:43.515Z,95.74
2023-01-31T04:11:14.124Z,95.88
2023-01-31T04:13:43.219Z,95.82
2023-01-31T04:16:11.375Z,95.88
2023-01-31T04:18:40.151Z,95.90
2023-01-31T04:21:08.393Z,96.03
2023-01-31T04:23:36.759Z,96.05
2023-01-31T04:26:04.879Z,96.08
2023-01-31T04:28:33.083Z,96.17
2023-01-31T04:31:01.167Z,96.25
2023-01-31T04:33:29.202Z,96.21
2023-01-31T04:35:57.052Z,96.16
2023-01-31T04:38:25.168Z,96.27
2023-01-31T04:40:53.052Z,96.42
2023-01-31T04:43:20.884Z,96.39
2023-01-31T04:45:48.817Z,96.48
2023-01-31T04:48:16.687Z,96.55
2023-01-31T04:50:44.569Z,96.53
2023-01-31T04:53:12.551Z,96.63
2023-01-31T04:55:40.441Z,96.54
2023-01-31T04:58:08.776Z,96.47
2023-01-31T05:00:36.994Z,96.60
2023-01-31T05:03:04.969Z,96.59
2023-01-31T05:05:36.097Z,96.65
2023-01-31T05:08:04.713Z,96.75
2023-01-31T05:10:34.364Z,96.76
2023-01-31T05:13:02.245Z,96.65
2023-01-31T05:15:30.291Z,96.64
2023-01-31T05:18:07.238Z,96.75
2023-01-31T05:20:40.788Z,96.87
2023-01-31T05:23:08.951Z,96.83
2023-01-31T05:25:37.759Z,96.92
2023-01-31T05:28:06.188Z,96.84
2023-01-31T05:30:34.880Z,96.84
2023-01-31T05:33:03.093Z,96.94
2023-01-31T05:35:31.399Z,97.03
2023-01-31T05:37:59.227Z,97.07
2023-01-31T05:40:27.140Z,97.21
2023-01-31T05:43:02.294Z,97.04
2023-01-31T05:45:31.319Z,97.15
2023-01-31T05:47:59.778Z,97.05
2023-01-31T05:50:27.758Z,96.92
2023-01-31T05:52:59.708Z,97.00
2023-01-31T05:55:28.505Z,96.94
2023-01-31T05:57:57.117Z,96.76
2023-01-31T06:00:25.708Z,96.85
2023-01-31T06:02:56.839Z,96.77
2023-01-31T06:05:25.170Z,96.76
2023-01-31T06:07:52.969Z,96.82
2023-01-31T06:10:21.305Z,96.79
2023-01-31T06:12:49.244Z,96.81
2023-01-31T06:15:17.734Z,96.68
2023-01-31T06:17:46.109Z,96.71
2023-01-31T06:20:14.109Z,96.75
2023-01-31T06:22:42.351Z,96.82
2023-01-31T06:25:11.341Z,96.87
2023-01-31T06:27:39.674Z,96.82
2023-01-31T06:30:09.094Z,96.84
2023-01-31T06:32:40.467Z,96.83
2023-01-31T06:35:08.707Z,96.79
2023-01-31T06:37:36.612Z,96.77
2023-01-31T06:40:04.940Z,96.79
2023-01-31T06:42:32.838Z,96.75
2023-01-31T06:45:00.761Z,96.84
2023-01-31T06:47:28.509Z,96.99
2023-01-31T06:49:56.964Z,97.10
2023-01-31T06:52:25.347Z,97.02
2023-01-31T06:54:53.172Z,97.10
2023-01-31T06:57:21.048Z,97.19
2023-01-31T06:59:49.030Z,97.04
2023-01-31T07:02:17.190Z,96.86
2023-01-31T07:04:45.073Z,96.84
2023-01-31T07:07:13.113Z,97.01
2023-01-31T07:09:41.162Z,96.83
2023-01-31T07:12:09.197Z,96.82
2023-01-31T07:14:37.328Z,96.81
2023-01-31T07:17:05.304Z,96.75
2023-01-31T07:19:33.541Z,96.73
2023-01-31T07:22:01.649Z,96.76
2023-01-31T07:24:30.199Z,96.77
2023-01-31T07:26:58.117Z,96.58
2023-01-31T07:29:26.000Z,96.49
2023-01-31T07:31:55.714Z,96.34
2023-01-31T07:34:23.851Z,96.27
2023-01-31T07:36:52.219Z,96.28
2023-01-31T07:39:20.034Z,96.25
2023-01-31T07:41:47.869Z,96.23
2023-01-31T07:44:15.946Z,96.17
2023-01-31T07:46:44.017Z,95.97
2023-01-31T07:49:12.629Z,95.87
2023-01-31T07:51:40.607Z,95.79
2023-01-31T07:54:10.559Z,95.64
2023-01-31T07:56:39.056Z,95.54
2023-01-31T07:59:06.965Z,95.68
2023-01-31T08:01:53.380Z,95.59
2023-01-31T08:04:22.738Z,95.44
2023-01-31T08:06:55.268Z,95.38
2023-01-31T08:09:25.048Z,95.46
2023-01-31T08:11:53.005Z,95.27
2023-01-31T08:14:25.536Z,95.26
2023-01-31T08:16:54.690Z,95.43
2023-01-31T08:19:22.916Z,95.36
2023-01-31T08:21:50.828Z,95.43
2023-01-31T08:24:18.675Z,95.49
2023-01-31T08:26:46.759Z,95.50
2023-01-31T08:29:14.727Z,95.51
2023-01-31T08:31:43.028Z,95.27
2023-01-31T08:34:11.265Z,95.26
2023-01-31T08:36:39.241Z,95.13
2023-01-31T08:39:07.353Z,95.14
2023-01-31T08:41:36.849Z,95.08
2023-01-31T08:44:05.883Z,95.13
2023-01-31T08:46:36.608Z,95.05
2023-01-31T08:49:06.449Z,95.11
2023-01-31T08:51:34.740Z,94.98
2023-01-31T08:54:03.146Z,94.85
2023-01-31T08:56:31.325Z,94.98
2023-01-31T08:58:59.482Z,94.70
2023-01-31T09:01:28.098Z,94.71
2023-01-31T09:03:57.535Z,94.60
2023-01-31T09:06:27.570Z,94.68
2023-01-31T09:08:58.910Z,94.41
2023-01-31T09:11:30.560Z,94.38
2023-01-31T09:13:58.721Z,94.23
2023-01-31T09:16:26.715Z,94.33
2023-01-31T09:18:56.080Z,94.11
2023-01-31T09:21:24.674Z,94.12
2023-01-31T09:23:57.587Z,94.09
2023-01-31T09:26:26.013Z,93.99
2023-01-31T09:28:54.219Z,93.94
2023-01-31T09:31:22.484Z,93.93
2023-01-31T09:33:50.492Z,93.99
2023-01-31T09:36:21.222Z,94.14
2023-01-31T09:38:53.286Z,94.00
2023-01-31T09:41:30.000Z,94.11
2023-01-31T09:44:11.845Z,93.93
2023-01-31T09:46:45.153Z,93.91
2023-01-31T09:49:25.807Z,93.71
2023-01-31T09:51:57.912Z,93.61
2023-01-31T09:54:39.141Z,93.89
2023-01-31T09:57:12.660Z,93.49
2023-01-31T10:00:01.860Z,93.38
2023-01-31T10:03:22.695Z,93.42
2023-01-31T10:05:53.761Z,93.41
2023-01-31T10:08:59.337Z,93.51
2023-01-31T10:11:58.505Z,93.47
2023-01-31T10:14:50.357Z,93.03
2023-01-31T10:17:36.614Z,92.90
2023-01-31T10:20:18.504Z,92.68
2023-01-31T10:23:12.541Z,92.67
2023-01-31T10:25:58.001Z,92.61
2023-01-31T10:28:32.282Z,92.69
2023-01-31T10:31:18.982Z,92.80
2023-01-31T10:33:55.994Z,92.61
2023-01-31T10:36:42.663Z,92.53
2023-01-31T10:39:26.374Z,92.55
2023-01-31T10:42:15.823Z,92.52
2023-01-31T10:44:58.918Z,92.64
2023-01-31T10:47:47.933Z,92.42
2023-01-31T10:50:27.375Z,92.36
2023-01-31T10:53:16.726Z,92.34
2023-01-31T10:56:32.660Z,92.72
2023-01-31T10:59:04.773Z,92.96
2023-01-31T11:01:34.284Z,93.47
2023-01-31T11:04:02.884Z,93.84
2023-01-31T11:06:30.837Z,94.35
2023-01-31T11:09:01.301Z,94.56
2023-01-31T11:11:30.305Z,95.08
2023-01-31T11:14:02.008Z,95.46
2023-01-31T11:16:34.143Z,95.62
2023-01-31T11:19:10.660Z,96.10
2023-01-31T11:21:40.079Z,96.38
2023-01-31T11:24:29.972Z,96.86
2023-01-31T11:27:03.514Z,97.11
2023-01-31T11:29:35.676Z,97.40
2023-01-31T11:32:14.491Z,97.75
2023-01-31T11:34:56.827Z,98.19
2023-01-31T11:37:25.014Z,98.25
2023-01-31T11:40:14.969Z,98.18
2023-01-31T11:42:57.904Z,98.24
2023-01-31T11:45:31.932Z,98.73
2023-01-31T11:48:19.518Z,98.64
2023-01-31T11:50:52.834Z,98.74
2023-01-31T11:53:27.028Z,98.98
2023-01-31T11:55:59.320Z,99.13
2023-01-31T11:58:34.236Z,99.44
2023-01-31T12:01:07.618Z,99.61
2023-01-31T12:03:37.332Z,99.68
2023-01-31T12:06:09.337Z,99.99
2023-01-31T12:08:43.321Z,99.97
2023-01-31T12:11:20.735Z,99.66
2023-01-31T12:13:53.419Z,99.68
2023-01-31T12:16:26.774Z,99.50
2023-01-31T12:19:04.185Z,99.54
2023-01-31T12:21:51.428Z,99.78
2023-01-31T12:24:48.696Z,99.46
2023-01-31T12:27:27.792Z,99.46
2023-01-31T12:30:09.246Z,99.39
2023-01-31T12:33:01.631Z,98.99
2023-01-31T12:35:38.726Z,98.66
2023-01-31T12:38:24.747Z,98.72
2023-01-31T12:41:17.006Z,98.33
2023-01-31T12:43:53.684Z,98.38
2023-01-31T12:46:35.484Z,98.01
2023-01-31T12:49:26.681Z,97.90
2023-01-31T12:52:03.498Z,98.11
2023-01-31T12:54:43.511Z,97.79
2023-01-31T12:57:30.569Z,97.70
2023-01-31T13:00:22.498Z,97.69
2023-01-31T13:03:09.309Z,97.32
2023-01-31T13:05:44.286Z,97.33
2023-01-31T13:08:26.920Z,97.04
2023-01-31T13:11:06.306Z,96.92
2023-01-31T13:13:46.543Z,96.93
2023-01-31T13:16:22.134Z,96.48
2023-01-31T13:18:53.195Z,96.75
2023-01-31T13:21:27.227Z,96.44
2023-01-31T13:24:09.001Z,96.31
2023-01-31T13:27:08.424Z,96.39
2023-01-31T13:30:08.169Z,95.95
2023-01-31T13:32:48.602Z,96.50
2023-01-31T13:35:29.292Z,96.40
2023-01-31T13:38:03.015Z,96.53
2023-01-31T13:40:36.287Z,96.16
2023-01-31T13:43:12.537Z,96.11
2023-01-31T13:45:48.366Z,96.17
2023-01-31T13:48:36.415Z,96.26
2023-01-31T13:51:22.686Z,96.15
2023-01-31T13:53:58.294Z,95.54
2023-01-31T13:56:37.291Z,95.61
2023-01-31T13:59:09.665Z,95.08
2023-01-31T14:01:46.413Z,94.71
2023-01-31T14:04:15.478Z,94.95
2023-01-31T14:06:57.648Z,94.97
2023-01-31T14:09:29.591Z,94.42
2023-01-31T14:11:59.963Z,94.14
2023-01-31T14:14:39.027Z,93.64
2023-01-31T14:17:22.110Z,92.73
2023-01-31T14:19:49.940Z,92.71
2023-01-31T14:22:20.264Z,92.39
2023-01-31T14:24:53.560Z,91.86
2023-01-31T14:27:24.085Z,91.44
2023-01-31T14:30:32.794Z,91.18
2023-01-31T14:33:08.653Z,90.77
2023-01-31T14:35:54.559Z,90.68
2023-01-31T14:38:22.443Z,90.55
2023-01-31T14:41:04.009Z,89.86
2023-01-31T14:43:59.604Z,90.13
2023-01-31T14:46:36.184Z,89.58
2023-01-31T14:49:22.488Z,88.71
2023-01-31T14:52:28.559Z,88.67
2023-01-31T14:55:05.419Z,88.80
2023-01-31T14:57:42.577Z,87.85
2023-01-31T15:00:16.305Z,86.17
2023-01-31T15:03:05.257Z,86.18
2023-01-31T15:05:33.252Z,86.79
2023-01-31T15:08:16.042Z,86.92
2023-01-31T15:11:02.031Z,86.33
2023-01-31T15:13:38.639Z,86.23
2023-01-31T15:16:31.264Z,85.27
2023-01-31T15:19:16.040Z,85.94
2023-01-31T15:21:57.247Z,85.64
2023-01-31T15:24:35.602Z,85.31
2023-01-31T15:27:11.469Z,85.72
2023-01-31T15:30:09.403Z,85.77
2023-01-31T15:32:49.916Z,85.50
2023-01-31T15:35:31.725Z,85.49
2023-01-31T15:38:25.795Z,85.45
2023-01-31T15:41:22.839Z,85.66
2023-01-31T15:43:56.763Z,85.85
2023-01-31T15:46:32.698Z,85.38
2023-01-31T15:49:00.990Z,85.57
2023-01-31T15:51:29.349Z,85.56
2023-01-31T15:54:02.994Z,85.70
2023-01-31T15:56:32.460Z,85.60
2023-01-31T15:59:01.866Z,85.29
2023-01-31T16:01:30.965Z,85.19
2023-01-31T16:04:00.184Z,85.20
2023-01-31T16:06:36.445Z,84.85
2023-01-31T16:09:06.733Z,84.95
2023-01-31T16:11:36.345Z,85.25
2023-01-31T16:14:05.924Z,85.18
2023-01-31T16:16:37.213Z,85.00
2023-01-31T16:19:05.600Z,85.02
2023-01-31T16:21:42.970Z,85.33
2023-01-31T16:24:20.262Z,85.28
2023-01-31T16:27:11.611Z,85.55
2023-01-31T16:29:42.649Z,85.87
2023-01-31T16:32:24.633Z,86.33
2023-01-31T16:34:55.674Z,86.53
2023-01-31T16:37:36.419Z,86.18
2023-01-31T16:40:21.022Z,85.62
2023-01-31T16:42:49.774Z,85.59
2023-01-31T16:45:34.029Z,85.40
2023-01-31T16:48:32.949Z,85.46
2023-01-31T16:51:22.655Z,85.77
2023-01-31T16:54:16.322Z,85.36
2023-01-31T16:56:45.985Z,85.71
2023-01-31T16:59:37.696Z,86.26
2023-01-31T17:02:19.084Z,86.50
2023-01-31T17:04:50.021Z,86.69
2023-01-31T17:07:22.722Z,86.61
2023-01-31T17:09:56.548Z,86.97
2023-01-31T17:12:28.021Z,87.04
2023-01-31T17:15:00.808Z,86.88
2023-01-31T17:17:36.948Z,86.56
2023-01-31T17:20:05.758Z,86.46
2023-01-31T17:22:33.760Z,86.39
2023-01-31T17:25:01.759Z,86.12
2023-01-31T17:27:29.615Z,86.20
2023-01-31T17:29:57.688Z,86.37
2023-01-31T17:32:25.620Z,86.26
2023-01-31T17:34:53.520Z,86.66
2023-01-31T17:37:31.087Z,86.82
2023-01-31T17:39:59.867Z,86.14
2023-01-31T17:42:33.186Z,86.36
2023-01-31T17:45:01.165Z,86.56
2023-01-31T17:47:32.185Z,86.49
2023-01-31T17:50:00.279Z,86.31
2023-01-31T17:52:28.386Z,85.82
2023-01-31T17:55:18.231Z,85.32
2023-01-31T17:57:47.454Z,85.27
2023-01-31T18:00:18.070Z,85.20
2023-01-31T18:02:46.716Z,85.21
2023-01-31T18:05:20.413Z,85.17
2023-01-31T18:07:52.522Z,85.28
2023-01-31T18:10:20.674Z,85.62
2023-01-31T18:12:49.679Z,85.48
2023-01-31T18:15:17.779Z,85.58
2023-01-31T18:17:48.064Z,85.22
2023-01-31T18:20:17.476Z,85.55
2023-01-31T18:22:46.537Z,85.40
2023-01-31T18:25:15.454Z,85.83
2023-01-31T18:27:43.572Z,86.20
2023-01-31T18:30:12.396Z,86.32
2023-01-31T18:32:40.473Z,86.12
2023-01-31T18:35:08.806Z,86.16
2023-01-31T18:37:36.786Z,86.26
2023-01-31T18:40:05.448Z,86.33
2023-01-31T18:42:33.417Z,86.21
2023-01-31T18:45:03.274Z,86.28
2023-01-31T18:47:31.257Z,86.48
2023-01-31T18:49:59.383Z,86.37
2023-01-31T18:52:27.803Z,86.22
2023-01-31T18:54:55.868Z,86.33
2023-01-31T18:57:23.907Z,86.04
2023-01-31T18:59:51.986Z,86.51
2023-01-31T19:02:20.694Z,86.47
2023-01-31T19:04:49.046Z,86.52
2023-01-31T19:07:17.506Z,86.68
2023-01-31T19:09:46.758Z,86.88
2023-01-31T19:12:14.755Z,86.83
2023-01-31T19:14:42.774Z,87.01
2023-01-31T19:17:11.832Z,87.26
2023-01-31T19:19:40.238Z,87.51
2023-01-31T19:22:11.185Z,87.61
2023-01-31T19:24:39.249Z,87.87
2023-01-31T19:27:07.218Z,88.31
2023-01-31T19:29:35.283Z,88.54
2023-01-31T19:32:03.551Z,88.29
2023-01-31T19:34:31.638Z,88.35
2023-01-31T19:36:59.767Z,88.54
2023-01-31T19:39:28.157Z,88.70
2023-01-31T19:41:56.293Z,89.01
2023-01-31T19:44:24.908Z,89.04
2023-01-31T19:46:53.916Z,89.27
2023-01-31T19:49:23.124Z,89.46
2023-01-31T19:51:51.339Z,89.16
2023-01-31T19:54:19.877Z,89.27
2023-01-31T19:56:47.831Z,89.50
2023-01-31T19:59:16.300Z,89.45
2023-01-31T20:01:44.365Z,89.34
2023-01-31T20:04:12.315Z,89.53
2023-01-31T20:06:40.341Z,89.62
2023-01-31T20:09:14.935Z,89.83
2023-01-31T20:11:43.076Z,90.13
2023-01-31T20:14:11.103Z,90.06
2023-01-31T20:16:39.245Z,90.28
2023-01-31T20:19:07.725Z,90.60
2023-01-31T20:21:36.082Z,90.71
2023-01-31T20:24:04.248Z,90.86
2023-01-31T20:26:33.376Z,91.19
2023-01-31T20:29:01.706Z,91.40
2023-01-31T20:31:29.964Z,91.52
2023-01-31T20:33:58.137Z,91.53
2023-01-31T20:36:26.548Z,91.52
2023-01-31T20:38:54.748Z,91.57
2023-01-31T20:41:22.833Z,91.61
2023-01-31T20:43:51.828Z,91.57
2023-01-31T20:46:20.039Z,91.65
2023-01-31T20:48:48.549Z,91.71
2023-01-31T20:51:16.631Z,91.72
2023-01-31T20:53:44.603Z,91.67
2023-01-31T20:56:13.118Z,91.56
2023-01-31T20:58:43.263Z,91.29
2023-01-31T21:01:12.471Z,91.39
2023-01-31T21:03:40.635Z,91.20
2023-01-31T21:06:09.054Z,91.42
2023-01-31T21:08:37.650Z,91.34
2023-01-31T21:11:10.222Z,91.34
2023-01-31T21:13:46.864Z,91.43
2023-01-31T21:16:16.732Z,91.51
2023-01-31T21:18:46.546Z,91.32
2023-01-31T21:21:23.208Z,91.00
2023-01-31T21:23:56.896Z,90.62
2023-01-31T21:26:26.919Z,90.60
2023-01-31T21:28:55.481Z,90.76
2023-01-31T21:31:23.596Z,90.76
2023-01-31T21:33:52.856Z,90.93
2023-01-31T21:36:26.190Z,90.71
2023-01-31T21:38:54.490Z,90.52
2023-01-31T21:41:41.130Z,90.23
2023-01-31T21:44:09.407Z,90.36
2023-01-31T21:46:39.753Z,90.15
2023-01-31T21:49:08.461Z,89.92
2023-01-31T21:51:36.469Z,89.65
2023-01-31T21:54:04.485Z,89.61
2023-01-31T21:56:32.623Z,89.32
2023-01-31T21:59:00.580Z,89.10
2023-01-31T22:01:31.591Z,88.97
2023-01-31T22:04:00.206Z,89.01
2023-01-31T22:06:37.126Z,88.66
2023-01-31T22:09:07.118Z,88.51
2023-01-31T22:11:35.930Z,87.80
2023-01-31T22:14:08.887Z,87.12
2023-01-31T22:16:37.286Z,86.96
2023-01-31T22:19:05.229Z,86.68
2023-01-31T22:21:36.127Z,86.82
2023-01-31T22:24:06.663Z,86.71
2023-01-31T22:26:38.151Z,86.71
2023-01-31T22:29:08.717Z,86.53
2023-01-31T22:31:37.006Z,86.54
2023-01-31T22:34:06.564Z,86.61
2023-01-31T22:36:35.013Z,86.85
2023-01-31T22:39:03.176Z,87.01
2023-01-31T22:41:31.819Z,87.05
2023-01-31T22:43:59.844Z,87.00
2023-01-31T22:46:30.118Z,86.90
2023-01-31T22:48:58.416Z,87.06
2023-01-31T22:51:28.089Z,87.04
2023-01-31T22:53:57.459Z,87.21
2023-01-31T22:56:30.935Z,87.11
2023-01-31T22:59:05.080Z,86.97
2023-01-31T23:01:35.737Z,86.93
2023-01-31T23:04:06.310Z,87.16
2023-01-31T23:06:35.757Z,87.07
2023-01-31T23:09:04.047Z,86.98
2023-01-31T23:11:32.063Z,87.06
2023-01-31T23:14:00.130Z,87.19
2023-01-31T23:16:46.876Z,87.33
2023-01-31T23:19:16.454Z,87.43
2023-01-31T23:21:44.790Z,87.52
2023-01-31T23:24:14.713Z,87.68
2023-01-31T23:26:43.400Z,87.79
2023-01-31T23:29:12.030Z,87.86
2023-01-31T23:31:40.287Z,87.90
2023-01-31T23:34:08.313Z,88.14
2023-01-31T23:36:36.171Z,88.08
2023-01-31T23:39:04.505Z,88.06
2023-01-31T23:41:32.434Z,88.17
2023-01-31T23:44:00.277Z,88.07
2023-01-31T23:46:28.349Z,88.26
2023-01-31T23:48:56.352Z,88.03
2023-01-31T23:51:24.267Z,88.08
2023-01-31T23:53:52.074Z,88.01
2023-01-31T23:56:20.260Z,87.99
2023-01-31T23:58:48.271Z,88.03
